Time;durP1;ratioP1;P1;durP2;ratioP2;P2;SDS_P1;SDS_P2;PMS_P1;PMS_P2;Temp;Humidity;BMP_temperature;BMP_pressure;BME280_temperature;BME280_humidity;BME280_pressure;Samples;Min_cycle;Max_cycle;Signal;HPM_P1;HPM_P2
2022/11/30 00:01:49;;;;;;;0.20;0.10;;;9.80;99.90;;;;;;21209884;28;20407;-69
2022/11/30 00:11:54;;;;;;;0.20;0.10;;;9.90;99.90;;;;;;21210893;28;20447;-69
2022/11/30 00:22:03;;;;;;;0.20;0.00;;;10.10;99.90;;;;;;21214067;28;20402;-69
2022/11/30 00:32:08;;;;;;;0.20;0.10;;;10.20;99.90;;;;;;21226748;28;20743;-67
2022/11/30 00:42:14;;;;;;;0.20;0.10;;;10.00;99.90;;;;;;21223195;28;20417;-69
2022/11/30 00:52:19;;;;;;;0.20;0.10;;;9.90;99.90;;;;;;21223753;28;20422;-69
2022/11/30 01:02:26;;;;;;;0.20;0.10;;;9.90;99.90;;;;;;21223535;28;20494;-68
2022/11/30 01:12:31;;;;;;;0.20;0.00;;;9.70;99.90;;;;;;21221922;28;20406;-68
2022/11/30 01:22:35;;;;;;;0.20;0.10;;;9.80;99.90;;;;;;21221841;28;20700;-68
2022/11/30 01:32:41;;;;;;;0.20;0.03;;;10.00;99.90;;;;;;21219578;28;20418;-68
2022/11/30 01:42:46;;;;;;;0.20;0.10;;;9.90;99.90;;;;;;21218046;28;20383;-68
2022/11/30 01:52:55;;;;;;;0.20;0.10;;;9.90;99.90;;;;;;21218061;28;20411;-68
2022/11/30 02:03:02;;;;;;;0.20;0.00;;;9.90;99.90;;;;;;21218792;28;20400;-68
2022/11/30 02:13:24;;;;;;;0.20;0.10;;;9.70;99.90;;;;;;21216409;28;20766;-68
2022/11/30 02:23:49;;;;;;;0.20;0.10;;;9.50;99.90;;;;;;21215812;28;20441;-69
2022/11/30 02:33:58;;;;;;;0.20;0.10;;;9.30;99.90;;;;;;21215901;28;20927;-70
2022/11/30 02:44:03;;;;;;;0.20;0.10;;;9.10;99.90;;;;;;21211794;28;20632;-68
2022/11/30 02:54:09;;;;;;;0.20;0.10;;;9.00;99.90;;;;;;21211458;28;20436;-69
2022/11/30 03:04:13;;;;;;;0.20;0.10;;;8.90;99.90;;;;;;21211380;28;20391;-70
2022/11/30 03:14:23;;;;;;;0.20;0.10;;;9.00;99.90;;;;;;21210796;28;20398;-70
2022/11/30 03:24:26;;;;;;;0.20;0.10;;;9.00;99.90;;;;;;21212397;28;20405;-70
2022/11/30 03:34:32;;;;;;;0.20;0.10;;;9.00;99.90;;;;;;21209746;28;20402;-69
2022/11/30 03:44:35;;;;;;;0.20;0.10;;;8.90;99.90;;;;;;21209945;28;20413;-69
2022/11/30 03:54:43;;;;;;;0.20;0.00;;;8.90;99.90;;;;;;21211123;28;20417;-69
2022/11/30 04:04:50;;;;;;;0.20;0.10;;;9.00;99.90;;;;;;21225438;28;20390;-69
2022/11/30 04:14:56;;;;;;;0.20;0.00;;;9.60;99.90;;;;;;21225385;28;20646;-69
2022/11/30 04:25:00;;;;;;;0.20;0.10;;;9.70;99.90;;;;;;21224887;28;20403;-70
2022/11/30 04:35:05;;;;;;;0.20;0.00;;;9.80;99.90;;;;;;21225913;28;20430;-68
2022/11/30 04:45:10;;;;;;;0.20;0.10;;;9.70;99.90;;;;;;21222000;28;20414;-69
2022/11/30 04:55:18;;;;;;;0.20;0.07;;;9.70;99.90;;;;;;21224459;28;20437;-70
2022/11/30 05:05:22;;;;;;;0.20;0.10;;;9.80;99.90;;;;;;21223243;28;20406;-69
2022/11/30 05:15:27;;;;;;;0.20;0.10;;;9.80;99.90;;;;;;21222208;28;20402;-69
2022/11/30 05:25:32;;;;;;;0.20;0.10;;;9.70;99.90;;;;;;21221528;28;20719;-68
2022/11/30 05:35:38;;;;;;;0.20;0.10;;;9.60;99.90;;;;;;21219878;28;20441;-68
2022/11/30 05:45:44;;;;;;;0.20;0.10;;;9.40;99.90;;;;;;21218643;28;20395;-70
2022/11/30 05:55:49;;;;;;;0.20;0.10;;;8.80;99.90;;;;;;21217248;28;20429;-69
2022/11/30 06:05:53;;;;;;;0.20;0.10;;;8.50;99.90;;;;;;21214274;28;20403;-68
2022/11/30 06:16:00;;;;;;;0.20;0.10;;;8.40;99.90;;;;;;21211945;28;20805;-68
2022/11/30 06:26:05;;;;;;;0.20;0.10;;;8.60;99.90;;;;;;21213347;28;20465;-69
2022/11/30 06:36:21;;;;;;;0.20;0.10;;;8.80;99.90;;;;;;21198249;28;20403;-70
2022/11/30 06:46:25;;;;;;;0.20;0.10;;;8.70;99.90;;;;;;21223375;27;20421;-68
2022/11/30 06:56:30;;;;;;;0.20;0.10;;;8.70;99.90;;;;;;21207607;28;20464;-69
2022/11/30 07:06:34;;;;;;;0.20;0.10;;;8.80;99.90;;;;;;21203543;28;20398;-67
2022/11/30 07:16:40;;;;;;;0.20;0.10;;;8.90;99.90;;;;;;21208501;28;20407;-68
2022/11/30 07:26:43;;;;;;;0.20;0.10;;;9.00;99.90;;;;;;21209882;28;20402;-69
2022/11/30 07:36:49;;;;;;;0.20;0.10;;;8.90;99.90;;;;;;21208477;28;20429;-69
2022/11/30 13:55:46;;;;;;;0.20;0.10;;;16.00;99.90;;;;;;21295868;27;20416;-67
2022/11/30 14:05:52;;;;;;;0.20;0.00;;;16.80;99.90;;;;;;21278185;27;20430;-67
2022/11/30 14:15:58;;;;;;;0.20;0.10;;;18.50;99.90;;;;;;21304198;27;20409;-66
2022/11/30 14:26:06;;;;;;;0.20;0.10;;;16.60;99.90;;;;;;21301385;27;20378;-67
2022/11/30 14:36:14;;;;;;;0.20;0.10;;;16.20;99.90;;;;;;21302733;27;20401;-67
2022/11/30 14:46:19;;;;;;;0.20;0.10;;;16.00;99.90;;;;;;21264145;27;20389;-66
2022/11/30 14:56:31;;;;;;;0.20;0.10;;;15.90;99.90;;;;;;21300271;27;20407;-64
2022/11/30 15:06:39;;;;;;;0.20;0.10;;;15.60;99.90;;;;;;21299158;27;20803;-66
2022/11/30 15:16:47;;;;;;;0.20;0.10;;;17.00;99.90;;;;;;21298210;27;20401;-68
2022/11/30 15:26:56;;;;;;;0.20;0.10;;;17.50;99.90;;;;;;21279690;27;20399;-67
2022/11/30 15:37:00;;;;;;;0.20;0.10;;;16.40;99.90;;;;;;21338317;27;20394;-66
2022/11/30 15:47:22;;;;;;;0.20;0.00;;;15.50;99.90;;;;;;21359080;27;20375;-67
2022/11/30 15:57:48;;;;;;;0.20;0.10;;;15.10;99.90;;;;;;21360136;27;20399;-66
2022/11/30 16:07:55;;;;;;;0.20;0.10;;;14.50;99.90;;;;;;21373989;27;20399;-66
2022/11/30 16:18:05;;;;;;;0.20;0.10;;;14.30;99.90;;;;;;21379357;27;20418;-65
2022/11/30 16:28:12;;;;;;;0.20;0.10;;;13.90;99.90;;;;;;21355655;27;20404;-67
2022/11/30 16:38:15;;;;;;;0.20;0.00;;;13.90;99.90;;;;;;21295075;28;20404;-66
2022/11/30 16:48:21;;;;;;;0.20;0.00;;;13.70;99.90;;;;;;21294415;28;20397;-67
2022/11/30 16:58:24;;;;;;;0.20;0.10;;;13.50;99.90;;;;;;21293710;28;20404;-67
2022/11/30 17:08:30;;;;;;;0.20;0.10;;;13.20;99.90;;;;;;21304183;27;20419;-67
2022/11/30 17:18:34;;;;;;;0.20;0.10;;;12.90;99.90;;;;;;21308996;27;20397;-66
2022/11/30 17:28:40;;;;;;;0.20;0.10;;;12.20;99.90;;;;;;21301068;27;20385;-66
2022/11/30 17:38:44;;;;;;;0.20;0.00;;;11.50;99.90;;;;;;21287346;27;20401;-66
2022/11/30 17:48:50;;;;;;;0.20;0.03;;;11.40;99.90;;;;;;21285521;27;20407;-67
2022/11/30 17:58:53;;;;;;;0.20;0.10;;;11.40;99.90;;;;;;21285248;27;20397;-67
2022/11/30 18:08:59;;;;;;;0.20;0.10;;;11.50;99.90;;;;;;21291591;27;20554;-66
2022/11/30 18:19:10;;;;;;;0.20;0.10;;;11.60;99.90;;;;;;21282833;27;20396;-69
2022/11/30 18:29:15;;;;;;;0.20;0.10;;;11.40;99.90;;;;;;21299028;27;20468;-67
2022/11/30 18:39:19;;;;;;;0.20;0.10;;;11.30;99.90;;;;;;21299195;27;20416;-66
2022/11/30 18:49:24;;;;;;;0.20;0.10;;;11.20;99.90;;;;;;21298113;27;20408;-68
2022/11/30 18:59:28;;;;;;;0.20;0.10;;;11.20;99.90;;;;;;21299005;27;20404;-67
2022/11/30 19:09:33;;;;;;;0.20;0.10;;;11.20;99.90;;;;;;21315482;27;20424;-69
2022/11/30 19:19:37;;;;;;;0.20;0.00;;;11.10;99.90;;;;;;21364393;27;20417;-68
2022/11/30 19:29:42;;;;;;;0.20;0.00;;;10.90;99.90;;;;;;21345336;27;20404;-68
2022/11/30 19:39:46;;;;;;;0.20;0.00;;;10.80;99.90;;;;;;21349847;27;20399;-68
2022/11/30 19:49:51;;;;;;;0.20;0.00;;;10.60;99.90;;;;;;21379747;27;20398;-68
2022/11/30 19:59:55;;;;;;;0.20;0.10;;;10.50;99.90;;;;;;21375828;27;20510;-69
2022/11/30 20:10:00;;;;;;;0.20;0.10;;;10.40;99.90;;;;;;21334517;27;20374;-68
2022/11/30 20:20:04;;;;;;;0.20;0.10;;;10.30;99.90;;;;;;21278894;28;20412;-69
2022/11/30 20:30:10;;;;;;;0.20;0.10;;;10.20;99.90;;;;;;21294114;28;20401;-69
2022/11/30 20:40:14;;;;;;;0.20;0.00;;;10.10;99.90;;;;;;21302498;27;20452;-68
2022/11/30 20:50:19;;;;;;;0.20;0.08;;;10.10;99.90;;;;;;21328312;27;20399;-69
2022/11/30 21:00:23;;;;;;;0.20;0.10;;;10.20;99.90;;;;;;21396933;27;20403;-68
2022/11/30 21:10:29;;;;;;;0.20;0.00;;;10.10;99.90;;;;;;21395538;27;20403;-68
2022/11/30 21:20:32;;;;;;;0.20;0.05;;;10.10;99.90;;;;;;21377866;27;20737;-67
2022/11/30 21:30:41;;;;;;;0.20;0.10;;;10.00;99.90;;;;;;21329166;27;20392;-68
2022/11/30 21:40:54;;;;;;;0.20;0.00;;;10.10;99.90;;;;;;21289676;27;20397;-69
2022/11/30 21:51:00;;;;;;;0.20;0.10;;;10.20;99.90;;;;;;21361134;27;20395;-69
2022/11/30 22:01:04;;;;;;;0.20;0.10;;;10.10;99.90;;;;;;21391127;27;20403;-68
2022/11/30 22:11:10;;;;;;;0.20;0.10;;;10.30;99.90;;;;;;21373762;27;20448;-69
2022/11/30 22:21:15;;;;;;;0.20;0.10;;;10.70;99.90;;;;;;21371943;27;20418;-67
2022/11/30 22:31:22;;;;;;;0.20;0.00;;;10.90;99.90;;;;;;21338453;27;20399;-68
2022/11/30 22:41:27;;;;;;;0.20;0.10;;;10.70;99.90;;;;;;21357255;27;20411;-68
2022/11/30 22:51:34;;;;;;;0.20;0.10;;;10.50;99.90;;;;;;21388770;27;20399;-68
2022/11/30 23:01:42;;;;;;;0.20;0.10;;;10.20;99.90;;;;;;21387893;27;20395;-68
2022/11/30 23:11:47;;;;;;;0.20;0.10;;;10.30;99.90;;;;;;21386579;27;20379;-68
2022/11/30 23:21:52;;;;;;;0.20;0.10;;;10.00;99.90;;;;;;21389058;27;20399;-69
2022/11/30 23:31:57;;;;;;;0.20;0.10;;;9.80;99.90;;;;;;21302277;27;20376;-69
2022/11/30 23:42:01;;;;;;;0.20;0.10;;;9.80;99.90;;;;;;21316769;27;20404;-69
2022/11/30 23:52:06;;;;;;;0.20;0.10;;;9.90;99.90;;;;;;21287707;27;20478;-69
